sensor_id;sensor_type;location;lat;lon;timestamp;pressure;altitude;pressure_sealevel;temperature;humidity
42335;BME280;27986;42.700;24.178;2022-09-09T00:04:28;94181.69;;;16.53;80.86
42335;BME280;27986;42.700;24.178;2022-09-09T00:15:19;94177.25;;;16.16;82.02
42335;BME280;27986;42.700;24.178;2022-09-09T00:18:07;94157.50;;;16.11;81.72
42335;BME280;27986;42.700;24.178;2022-09-09T00:23:28;94122.06;;;15.91;81.15
42335;BME280;27986;42.700;24.178;2022-09-09T00:28:58;94171.38;;;15.93;82.69
42335;BME280;27986;42.700;24.178;2022-09-09T00:31:31;94131.28;;;15.42;84.01
42335;BME280;27986;42.700;24.178;2022-09-09T00:34:18;94175.50;;;15.51;86.11
42335;BME280;27986;42.700;24.178;2022-09-09T00:36:48;94124.59;;;15.18;87.02
42335;BME280;27986;42.700;24.178;2022-09-09T00:39:38;94162.72;;;15.44;87.17
42335;BME280;27986;42.700;24.178;2022-09-09T00:42:19;94168.84;;;15.48;86.74
42335;BME280;27986;42.700;24.178;2022-09-09T00:44:59;94178.34;;;15.64;86.04
42335;BME280;27986;42.700;24.178;2022-09-09T00:47:48;94100.72;;;15.35;84.32
42335;BME280;27986;42.700;24.178;2022-09-09T00:55:59;94131.06;;;16.02;81.22
42335;BME280;27986;42.700;24.178;2022-09-09T00:58:28;94085.69;;;15.47;82.09
42335;BME280;27986;42.700;24.178;2022-09-09T01:01:00;94128.66;;;15.86;81.89
42335;BME280;27986;42.700;24.178;2022-09-09T01:06:14;94137.25;;;15.93;81.71
42335;BME280;27986;42.700;24.178;2022-09-09T01:08:54;94141.66;;;15.73;82.24
42335;BME280;27986;42.700;24.178;2022-09-09T01:11:26;94126.69;;;15.60;81.89
42335;BME280;27986;42.700;24.178;2022-09-09T01:16:40;94128.47;;;15.84;81.53
42335;BME280;27986;42.700;24.178;2022-09-09T01:19:10;94134.59;;;15.95;81.15
42335;BME280;27986;42.700;24.178;2022-09-09T01:21:47;94131.69;;;15.88;81.51
42335;BME280;27986;42.700;24.178;2022-09-09T01:26:50;94101.34;;;15.62;81.63
42335;BME280;27986;42.700;24.178;2022-09-09T01:29:18;94125.84;;;15.65;82.11
42335;BME280;27986;42.700;24.178;2022-09-09T01:31:57;94121.47;;;15.64;82.16
42335;BME280;27986;42.700;24.178;2022-09-09T01:34:26;94109.66;;;15.39;82.77
42335;BME280;27986;42.700;24.178;2022-09-09T01:39:27;94118.50;;;15.35;83.68
42335;BME280;27986;42.700;24.178;2022-09-09T01:41:53;94091.25;;;15.19;83.53
42335;BME280;27986;42.700;24.178;2022-09-09T01:44:19;94113.75;;;15.30;83.56
42335;BME280;27986;42.700;24.178;2022-09-09T01:46:46;94091.63;;;15.15;83.51
42335;BME280;27986;42.700;24.178;2022-09-09T01:49:11;94076.50;;;15.00;83.89
42335;BME280;27986;42.700;24.178;2022-09-09T01:51:39;94117.66;;;15.27;84.09
42335;BME280;27986;42.700;24.178;2022-09-09T01:54:06;94066.94;;;14.89;84.11
42335;BME280;27986;42.700;24.178;2022-09-09T02:04:38;94139.22;;;15.23;84.26
42335;BME280;27986;42.700;24.178;2022-09-09T02:07:14;94110.50;;;15.13;83.21
42335;BME280;27986;42.700;24.178;2022-09-09T02:12:47;94132.81;;;15.43;81.77
42335;BME280;27986;42.700;24.178;2022-09-09T02:15:20;94098.34;;;15.26;81.03
42335;BME280;27986;42.700;24.178;2022-09-09T02:17:50;94148.84;;;15.74;79.89
42335;BME280;27986;42.700;24.178;2022-09-09T02:20:18;94153.44;;;15.43;80.25
42335;BME280;27986;42.700;24.178;2022-09-09T02:22:46;94116.72;;;15.25;81.12
42335;BME280;27986;42.700;24.178;2022-09-09T02:25:15;94150.88;;;15.66;80.50
42335;BME280;27986;42.700;24.178;2022-09-09T02:27:44;94120.88;;;15.44;80.20
42335;BME280;27986;42.700;24.178;2022-09-09T02:30:11;94141.69;;;15.60;79.97
42335;BME280;27986;42.700;24.178;2022-09-09T02:32:38;94104.50;;;15.37;79.68
42335;BME280;27986;42.700;24.178;2022-09-09T02:35:12;94144.97;;;15.64;79.38
42335;BME280;27986;42.700;24.178;2022-09-09T02:37:40;94140.34;;;15.40;79.86
42335;BME280;27986;42.700;24.178;2022-09-09T02:40:10;94135.16;;;15.31;79.67
42335;BME280;27986;42.700;24.178;2022-09-09T02:42:40;94157.56;;;15.56;79.46
42335;BME280;27986;42.700;24.178;2022-09-09T02:45:08;94131.47;;;15.44;78.91
42335;BME280;27986;42.700;24.178;2022-09-09T02:48:12;94168.06;;;15.61;79.55
42335;BME280;27986;42.700;24.178;2022-09-09T02:56:15;94120.34;;;15.12;80.09
42335;BME280;27986;42.700;24.178;2022-09-09T02:58:42;94132.94;;;15.03;81.15
42335;BME280;27986;42.700;24.178;2022-09-09T03:01:08;94146.72;;;14.99;81.53
42335;BME280;27986;42.700;24.178;2022-09-09T03:03:34;94107.59;;;14.45;83.69
42335;BME280;27986;42.700;24.178;2022-09-09T03:06:00;94119.06;;;14.52;84.78
42335;BME280;27986;42.700;24.178;2022-09-09T03:08:26;94114.59;;;14.57;84.61
42335;BME280;27986;42.700;24.178;2022-09-09T03:10:54;94125.81;;;14.62;84.65
42335;BME280;27986;42.700;24.178;2022-09-09T03:13:19;94149.84;;;14.61;84.89
42335;BME280;27986;42.700;24.178;2022-09-09T03:15:45;94168.28;;;14.81;84.72
42335;BME280;27986;42.700;24.178;2022-09-09T03:18:10;94122.13;;;14.54;85.22
42335;BME280;27986;42.700;24.178;2022-09-09T03:20:36;94144.59;;;14.66;84.96
42335;BME280;27986;42.700;24.178;2022-09-09T03:23:01;94128.59;;;14.55;84.99
42335;BME280;27986;42.700;24.178;2022-09-09T03:25:27;94139.78;;;14.74;85.06
42335;BME280;27986;42.700;24.178;2022-09-09T03:27:54;94152.72;;;14.96;84.28
42335;BME280;27986;42.700;24.178;2022-09-09T03:30:25;94155.03;;;14.97;84.00
42335;BME280;27986;42.700;24.178;2022-09-09T03:32:51;94148.38;;;14.95;83.96
42335;BME280;27986;42.700;24.178;2022-09-09T03:35:17;94146.72;;;14.99;83.64
42335;BME280;27986;42.700;24.178;2022-09-09T03:37:43;94106.50;;;14.61;84.19
42335;BME280;27986;42.700;24.178;2022-09-09T03:40:09;94118.75;;;14.56;85.21
42335;BME280;27986;42.700;24.178;2022-09-09T03:42:36;94119.72;;;14.45;86.33
42335;BME280;27986;42.700;24.178;2022-09-09T03:45:06;94121.56;;;14.43;86.74
42335;BME280;27986;42.700;24.178;2022-09-09T03:47:33;94103.69;;;14.34;87.38
42335;BME280;27986;42.700;24.178;2022-09-09T03:49:58;94090.81;;;14.33;86.43
42335;BME280;27986;42.700;24.178;2022-09-09T03:52:24;94130.31;;;14.58;86.47
42335;BME280;27986;42.700;24.178;2022-09-09T03:54:51;94105.34;;;14.30;86.39
42335;BME280;27986;42.700;24.178;2022-09-09T03:57:17;94095.50;;;14.18;86.61
42335;BME280;27986;42.700;24.178;2022-09-09T03:59:43;94120.50;;;14.46;86.79
42335;BME280;27986;42.700;24.178;2022-09-09T04:02:08;94113.84;;;14.56;85.95
42335;BME280;27986;42.700;24.178;2022-09-09T04:04:34;94123.06;;;14.70;85.47
42335;BME280;27986;42.700;24.178;2022-09-09T04:07:00;94128.53;;;14.81;84.27
42335;BME280;27986;42.700;24.178;2022-09-09T04:09:25;94107.75;;;14.86;83.12
42335;BME280;27986;42.700;24.178;2022-09-09T04:11:51;94113.81;;;15.04;82.44
42335;BME280;27986;42.700;24.178;2022-09-09T04:14:18;94130.53;;;15.07;82.03
42335;BME280;27986;42.700;24.178;2022-09-09T04:16:43;94109.06;;;14.85;81.52
42335;BME280;27986;42.700;24.178;2022-09-09T04:19:10;94124.47;;;14.90;82.62
42335;BME280;27986;42.700;24.178;2022-09-09T04:21:38;94152.97;;;14.98;83.39
42335;BME280;27986;42.700;24.178;2022-09-09T04:24:06;94131.59;;;14.83;83.05
42335;BME280;27986;42.700;24.178;2022-09-09T04:26:33;94134.78;;;14.80;82.93
42335;BME280;27986;42.700;24.178;2022-09-09T04:28:58;94115.34;;;14.44;84.38
42335;BME280;27986;42.700;24.178;2022-09-09T04:31:23;94107.72;;;14.52;84.08
42335;BME280;27986;42.700;24.178;2022-09-09T04:33:50;94103.16;;;14.23;85.08
42335;BME280;27986;42.700;24.178;2022-09-09T04:36:16;94139.06;;;14.47;85.93
42335;BME280;27986;42.700;24.178;2022-09-09T04:38:46;94123.22;;;14.38;86.05
42335;BME280;27986;42.700;24.178;2022-09-09T04:41:13;94121.28;;;14.46;85.96
42335;BME280;27986;42.700;24.178;2022-09-09T04:43:39;94091.81;;;14.49;85.09
42335;BME280;27986;42.700;24.178;2022-09-09T04:46:05;94139.22;;;14.88;84.53
42335;BME280;27986;42.700;24.178;2022-09-09T04:48:31;94158.19;;;15.07;84.26
42335;BME280;27986;42.700;24.178;2022-09-09T04:50:58;94086.88;;;14.63;83.38
42335;BME280;27986;42.700;24.178;2022-09-09T04:53:24;94150.75;;;15.04;83.45
42335;BME280;27986;42.700;24.178;2022-09-09T04:55:51;94131.78;;;14.99;83.56
42335;BME280;27986;42.700;24.178;2022-09-09T04:58:17;94161.25;;;15.30;84.22
42335;BME280;27986;42.700;24.178;2022-09-09T05:00:43;94162.25;;;15.53;87.09
42335;BME280;27986;42.700;24.178;2022-09-09T05:03:09;94143.00;;;15.80;83.76
42335;BME280;27986;42.700;24.178;2022-09-09T05:05:34;94117.78;;;15.76;80.05
42335;BME280;27986;42.700;24.178;2022-09-09T05:08:09;94164.38;;;15.94;81.48
42335;BME280;27986;42.700;24.178;2022-09-09T05:10:39;94114.31;;;15.91;82.82
42335;BME280;27986;42.700;24.178;2022-09-09T05:13:06;94156.19;;;16.69;78.88
42335;BME280;27986;42.700;24.178;2022-09-09T05:15:32;94130.91;;;16.65;76.14
42335;BME280;27986;42.700;24.178;2022-09-09T05:18:01;94156.16;;;17.05;75.67
42335;BME280;27986;42.700;24.178;2022-09-09T05:20:28;94106.34;;;16.83;74.29
42335;BME280;27986;42.700;24.178;2022-09-09T05:22:54;94134.47;;;16.94;73.23
42335;BME280;27986;42.700;24.178;2022-09-09T05:25:20;94111.03;;;17.16;73.88
42335;BME280;27986;42.700;24.178;2022-09-09T05:27:47;94115.16;;;17.75;71.39
42335;BME280;27986;42.700;24.178;2022-09-09T05:30:12;94110.75;;;18.04;70.01
42335;BME280;27986;42.700;24.178;2022-09-09T05:32:38;94068.16;;;17.98;68.64
42335;BME280;27986;42.700;24.178;2022-09-09T05:35:04;94089.84;;;18.17;68.49
42335;BME280;27986;42.700;24.178;2022-09-09T05:37:34;94082.97;;;18.27;68.39
42335;BME280;27986;42.700;24.178;2022-09-09T05:40:00;94104.88;;;18.17;67.73
42335;BME280;27986;42.700;24.178;2022-09-09T05:42:29;94089.84;;;18.09;68.30
42335;BME280;27986;42.700;24.178;2022-09-09T05:44:55;94132.03;;;18.41;68.71
42335;BME280;27986;42.700;24.178;2022-09-09T05:47:21;94074.06;;;18.08;68.18
42335;BME280;27986;42.700;24.178;2022-09-09T05:49:47;94108.66;;;18.12;68.84
42335;BME280;27986;42.700;24.178;2022-09-09T05:52:12;94084.13;;;18.09;68.97
42335;BME280;27986;42.700;24.178;2022-09-09T05:54:37;94103.53;;;18.18;69.47
42335;BME280;27986;42.700;24.178;2022-09-09T05:57:04;94090.38;;;18.31;68.87
42335;BME280;27986;42.700;24.178;2022-09-09T05:59:29;94098.56;;;18.42;68.62
42335;BME280;27986;42.700;24.178;2022-09-09T06:01:56;94079.88;;;18.41;67.64
42335;BME280;27986;42.700;24.178;2022-09-09T06:04:29;94102.66;;;18.64;67.70
42335;BME280;27986;42.700;24.178;2022-09-09T06:06:55;94081.34;;;18.57;67.79
42335;BME280;27986;42.700;24.178;2022-09-09T06:09:20;94076.59;;;18.60;67.23
42335;BME280;27986;42.700;24.178;2022-09-09T06:11:46;94069.16;;;18.72;65.89
42335;BME280;27986;42.700;24.178;2022-09-09T06:14:12;94108.94;;;18.85;67.04
42335;BME280;27986;42.700;24.178;2022-09-09T06:16:38;94061.59;;;18.51;66.66
42335;BME280;27986;42.700;24.178;2022-09-09T06:19:03;94066.75;;;18.45;67.59
42335;BME280;27986;42.700;24.178;2022-09-09T06:21:31;94082.56;;;18.39;67.00
42335;BME280;27986;42.700;24.178;2022-09-09T06:23:58;94088.59;;;18.58;66.21
42335;BME280;27986;42.700;24.178;2022-09-09T06:26:35;94064.63;;;18.53;65.83
42335;BME280;27986;42.700;24.178;2022-09-09T06:29:02;94079.03;;;18.78;65.78
42335;BME280;27986;42.700;24.178;2022-09-09T06:31:33;94122.91;;;18.43;67.55
42335;BME280;27986;42.700;24.178;2022-09-09T06:33:59;94122.50;;;18.54;67.93
42335;BME280;27986;42.700;24.178;2022-09-09T06:36:33;94098.78;;;18.13;69.64
42335;BME280;27986;42.700;24.178;2022-09-09T06:39:00;94122.84;;;18.58;69.31
42335;BME280;27986;42.700;24.178;2022-09-09T06:41:28;94110.66;;;18.80;68.22
42335;BME280;27986;42.700;24.178;2022-09-09T06:43:54;94102.53;;;18.46;67.69
42335;BME280;27986;42.700;24.178;2022-09-09T06:46:25;94097.75;;;18.49;67.64
42335;BME280;27986;42.700;24.178;2022-09-09T06:48:54;94105.56;;;18.48;67.65
42335;BME280;27986;42.700;24.178;2022-09-09T06:51:32;94106.09;;;18.77;66.32
42335;BME280;27986;42.700;24.178;2022-09-09T06:54:00;94131.16;;;19.02;67.95
42335;BME280;27986;42.700;24.178;2022-09-09T06:56:31;94126.53;;;19.06;67.50
42335;BME280;27986;42.700;24.178;2022-09-09T06:58:59;94107.56;;;18.94;66.21
42335;BME280;27986;42.700;24.178;2022-09-09T07:01:34;94121.91;;;19.26;64.18
42335;BME280;27986;42.700;24.178;2022-09-09T07:04:00;94119.22;;;19.28;65.54
42335;BME280;27986;42.700;24.178;2022-09-09T07:06:35;94103.94;;;19.33;64.68
42335;BME280;27986;42.700;24.178;2022-09-09T07:09:04;94136.47;;;19.46;65.63
42335;BME280;27986;42.700;24.178;2022-09-09T07:11:32;94094.59;;;19.00;64.82
42335;BME280;27986;42.700;24.178;2022-09-09T07:13:59;94101.72;;;19.17;65.34
42335;BME280;27986;42.700;24.178;2022-09-09T07:16:25;94105.09;;;19.30;64.79
42335;BME280;27986;42.700;24.178;2022-09-09T07:18:53;94059.88;;;19.36;63.79
42335;BME280;27986;42.700;24.178;2022-09-09T07:21:23;94123.00;;;19.96;62.58
42335;BME280;27986;42.700;24.178;2022-09-09T07:23:50;94112.75;;;19.93;62.56
42335;BME280;27986;42.700;24.178;2022-09-09T07:26:18;94080.50;;;19.67;62.92
42335;BME280;27986;42.700;24.178;2022-09-09T07:28:44;94138.41;;;20.01;62.76
42335;BME280;27986;42.700;24.178;2022-09-09T07:31:34;94127.16;;;20.03;63.72
42335;BME280;27986;42.700;24.178;2022-09-09T07:34:01;94126.69;;;20.14;63.17
42335;BME280;27986;42.700;24.178;2022-09-09T07:36:30;94126.56;;;20.29;62.36
42335;BME280;27986;42.700;24.178;2022-09-09T07:39:01;94113.28;;;20.16;61.35
42335;BME280;27986;42.700;24.178;2022-09-09T07:41:35;94094.94;;;20.44;60.73
42335;BME280;27986;42.700;24.178;2022-09-09T07:44:14;94107.09;;;20.70;59.34
42335;BME280;27986;42.700;24.178;2022-09-09T07:46:40;94107.94;;;20.80;58.39
42335;BME280;27986;42.700;24.178;2022-09-09T07:49:07;94087.38;;;20.74;59.34
42335;BME280;27986;42.700;24.178;2022-09-09T07:51:35;94122.09;;;20.95;59.95
42335;BME280;27986;42.700;24.178;2022-09-09T07:54:05;94057.28;;;20.48;59.98
42335;BME280;27986;42.700;24.178;2022-09-09T07:56:31;94119.25;;;20.78;57.12
42335;BME280;27986;42.700;24.178;2022-09-09T07:58:57;94090.06;;;20.55;59.93
42335;BME280;27986;42.700;24.178;2022-09-09T08:01:32;94072.03;;;20.62;60.07
42335;BME280;27986;42.700;24.178;2022-09-09T08:06:32;94082.28;;;20.99;58.69
42335;BME280;27986;42.700;24.178;2022-09-09T08:09:04;94101.25;;;21.12;59.35
42335;BME280;27986;42.700;24.178;2022-09-09T08:11:30;94093.41;;;21.30;59.88
42335;BME280;27986;42.700;24.178;2022-09-09T08:13:56;94068.94;;;21.29;60.15
42335;BME280;27986;42.700;24.178;2022-09-09T08:16:24;94087.69;;;21.57;59.30
42335;BME280;27986;42.700;24.178;2022-09-09T08:18:53;94064.13;;;21.58;59.12
42335;BME280;27986;42.700;24.178;2022-09-09T08:21:27;94013.75;;;21.38;59.06
42335;BME280;27986;42.700;24.178;2022-09-09T08:23:55;94023.00;;;21.46;58.35
42335;BME280;27986;42.700;24.178;2022-09-09T08:26:23;94095.88;;;21.97;58.17
42335;BME280;27986;42.700;24.178;2022-09-09T08:28:50;94069.72;;;21.93;57.63
42335;BME280;27986;42.700;24.178;2022-09-09T08:31:26;94055.28;;;21.74;58.30
42335;BME280;27986;42.700;24.178;2022-09-09T08:33:53;94089.09;;;22.02;57.87
42335;BME280;27986;42.700;24.178;2022-09-09T08:36:28;94060.53;;;22.04;58.19
42335;BME280;27986;42.700;24.178;2022-09-09T08:38:55;94092.06;;;22.22;57.27
42335;BME280;27986;42.700;24.178;2022-09-09T08:52:40;94087.47;;;22.65;55.64
42335;BME280;27986;42.700;24.178;2022-09-09T08:57:53;94081.19;;;22.95;55.12
42335;BME280;27986;42.700;24.178;2022-09-09T09:00:49;94077.06;;;23.08;56.35
42335;BME280;27986;42.700;24.178;2022-09-09T09:06:10;94067.97;;;22.83;54.59
42335;BME280;27986;42.700;24.178;2022-09-09T09:11:51;94060.84;;;22.84;51.80
42335;BME280;27986;42.700;24.178;2022-09-09T09:14:35;94056.97;;;22.89;52.10
42335;BME280;27986;42.700;24.178;2022-09-09T09:17:05;94074.03;;;23.16;52.47
42335;BME280;27986;42.700;24.178;2022-09-09T09:19:35;94042.56;;;22.98;50.57
42335;BME280;27986;42.700;24.178;2022-09-09T09:24:56;94022.41;;;23.08;50.26
42335;BME280;27986;42.700;24.178;2022-09-09T09:27:30;94067.31;;;23.52;50.43
42335;BME280;27986;42.700;24.178;2022-09-09T09:29:58;94034.75;;;23.49;50.53
42335;BME280;27986;42.700;24.178;2022-09-09T09:32:25;94028.06;;;23.66;49.72
42335;BME280;27986;42.700;24.178;2022-09-09T09:34:56;94049.00;;;23.98;48.59
42335;BME280;27986;42.700;24.178;2022-09-09T09:37:41;94033.31;;;23.79;47.89
42335;BME280;27986;42.700;24.178;2022-09-09T09:40:18;94028.47;;;23.82;46.32
42335;BME280;27986;42.700;24.178;2022-09-09T09:42:58;94029.06;;;24.11;46.21
42335;BME280;27986;42.700;24.178;2022-09-09T09:45:34;94051.06;;;24.48;47.18
42335;BME280;27986;42.700;24.178;2022-09-09T09:48:09;94041.78;;;24.70;46.72
42335;BME280;27986;42.700;24.178;2022-09-09T09:50:50;93989.81;;;24.37;47.47
42335;BME280;27986;42.700;24.178;2022-09-09T09:53:30;94042.59;;;24.83;47.34
42335;BME280;27986;42.700;24.178;2022-09-09T09:56:05;94039.44;;;25.00;47.23
42335;BME280;27986;42.700;24.178;2022-09-09T09:58:34;94043.06;;;25.01;46.40
42335;BME280;27986;42.700;24.178;2022-09-09T10:01:23;94040.06;;;24.77;46.98
42335;BME280;27986;42.700;24.178;2022-09-09T10:04:00;94041.84;;;25.04;47.15
42335;BME280;27986;42.700;24.178;2022-09-09T10:06:35;94033.47;;;25.08;45.98
42335;BME280;27986;42.700;24.178;2022-09-09T10:09:29;94041.97;;;25.39;47.93
42335;BME280;27986;42.700;24.178;2022-09-09T10:17:29;94013.88;;;25.39;46.93
42335;BME280;27986;42.700;24.178;2022-09-09T10:20:18;94027.72;;;25.64;47.22
42335;BME280;27986;42.700;24.178;2022-09-09T10:22:50;94012.59;;;25.75;46.51
42335;BME280;27986;42.700;24.178;2022-09-09T10:25:29;94030.56;;;25.97;48.82
42335;BME280;27986;42.700;24.178;2022-09-09T10:28:15;94023.13;;;26.06;47.42
42335;BME280;27986;42.700;24.178;2022-09-09T10:36:13;94026.63;;;25.81;48.16
42335;BME280;27986;42.700;24.178;2022-09-09T10:38:48;94028.03;;;26.03;47.39
42335;BME280;27986;42.700;24.178;2022-09-09T10:47:12;94016.84;;;26.21;47.39
42335;BME280;27986;42.700;24.178;2022-09-09T10:55:13;94013.75;;;26.41;45.74
42335;BME280;27986;42.700;24.178;2022-09-09T10:57:45;94005.00;;;26.76;46.28
42335;BME280;27986;42.700;24.178;2022-09-09T11:00:38;94018.88;;;27.03;44.16
42335;BME280;27986;42.700;24.178;2022-09-09T11:03:05;94006.38;;;26.75;45.57
42335;BME280;27986;42.700;24.178;2022-09-09T11:05:45;94006.81;;;26.57;45.41
42335;BME280;27986;42.700;24.178;2022-09-09T11:08:14;94021.50;;;26.61;46.63
42335;BME280;27986;42.700;24.178;2022-09-09T11:13:43;94013.88;;;26.43;48.89
42335;BME280;27986;42.700;24.178;2022-09-09T11:16:25;94014.81;;;26.71;47.02
42335;BME280;27986;42.700;24.178;2022-09-09T11:18:58;94010.19;;;27.03;45.48
42335;BME280;27986;42.700;24.178;2022-09-09T11:21:32;93987.94;;;26.93;45.31
42335;BME280;27986;42.700;24.178;2022-09-09T11:24:06;94004.06;;;27.22;46.32
42335;BME280;27986;42.700;24.178;2022-09-09T11:26:42;93976.97;;;27.04;46.58
42335;BME280;27986;42.700;24.178;2022-09-09T11:34:25;93996.03;;;27.20;47.44
42335;BME280;27986;42.700;24.178;2022-09-09T11:42:34;93972.00;;;26.81;47.25
42335;BME280;27986;42.700;24.178;2022-09-09T11:45:19;93977.59;;;26.65;44.84
42335;BME280;27986;42.700;24.178;2022-09-09T11:47:56;93987.84;;;26.91;46.36
42335;BME280;27986;42.700;24.178;2022-09-09T11:52:49;93982.13;;;26.56;47.17
42335;BME280;27986;42.700;24.178;2022-09-09T11:55:34;93982.16;;;26.93;45.69
42335;BME280;27986;42.700;24.178;2022-09-09T11:58:06;93968.50;;;26.82;44.85
42335;BME280;27986;42.700;24.178;2022-09-09T12:00:46;93934.50;;;26.57;46.01
42335;BME280;27986;42.700;24.178;2022-09-09T12:03:45;93976.59;;;26.98;46.09
42335;BME280;27986;42.700;24.178;2022-09-09T12:06:28;93987.41;;;26.97;46.21
42335;BME280;27986;42.700;24.178;2022-09-09T12:09:07;93971.38;;;26.82;47.08
42335;BME280;27986;42.700;24.178;2022-09-09T12:11:36;93942.13;;;26.64;46.36
42335;BME280;27986;42.700;24.178;2022-09-09T12:14:02;93977.59;;;26.65;47.36
42335;BME280;27986;42.700;24.178;2022-09-09T12:16:46;93955.75;;;26.50;47.54
42335;BME280;27986;42.700;24.178;2022-09-09T12:22:17;93961.72;;;26.17;48.64
42335;BME280;27986;42.700;24.178;2022-09-09T12:27:48;93968.63;;;26.00;49.03
42335;BME280;27986;42.700;24.178;2022-09-09T12:30:29;93962.75;;;25.98;49.36
42335;BME280;27986;42.700;24.178;2022-09-09T12:33:10;93946.75;;;25.62;49.40
42335;BME280;27986;42.700;24.178;2022-09-09T12:35:47;93906.81;;;25.47;50.02
42335;BME280;27986;42.700;24.178;2022-09-09T12:38:42;93921.00;;;25.66;50.17
42335;BME280;27986;42.700;24.178;2022-09-09T12:41:19;93960.59;;;25.75;51.27
42335;BME280;27986;42.700;24.178;2022-09-09T12:43:45;93939.47;;;25.49;51.33
42335;BME280;27986;42.700;24.178;2022-09-09T12:46:21;93955.28;;;25.48;51.18
42335;BME280;27986;42.700;24.178;2022-09-09T12:48:47;93950.09;;;25.35;52.95
42335;BME280;27986;42.700;24.178;2022-09-09T12:51:24;93928.00;;;24.83;53.93
42335;BME280;27986;42.700;24.178;2022-09-09T12:53:51;93939.25;;;24.79;54.61
42335;BME280;27986;42.700;24.178;2022-09-09T12:56:29;93942.28;;;24.81;53.47
42335;BME280;27986;42.700;24.178;2022-09-09T12:58:57;93932.81;;;24.69;54.23
42335;BME280;27986;42.700;24.178;2022-09-09T13:01:29;93954.06;;;24.85;54.47
42335;BME280;27986;42.700;24.178;2022-09-09T13:03:55;93957.69;;;24.74;53.79
42335;BME280;27986;42.700;24.178;2022-09-09T13:06:31;93940.69;;;24.57;54.73
42335;BME280;27986;42.700;24.178;2022-09-09T13:08:59;93926.19;;;24.45;54.92
42335;BME280;27986;42.700;24.178;2022-09-09T13:11:47;93945.75;;;24.47;55.61
42335;BME280;27986;42.700;24.178;2022-09-09T13:14:29;93936.34;;;24.46;56.12
42335;BME280;27986;42.700;24.178;2022-09-09T13:17:02;93951.47;;;24.56;55.94
42335;BME280;27986;42.700;24.178;2022-09-09T13:19:36;93937.94;;;24.59;56.42
42335;BME280;27986;42.700;24.178;2022-09-09T13:24:59;93936.22;;;24.44;56.22
42335;BME280;27986;42.700;24.178;2022-09-09T13:27:33;93934.84;;;24.45;56.63
42335;BME280;27986;42.700;24.178;2022-09-09T13:30:00;93899.25;;;24.40;56.39
42335;BME280;27986;42.700;24.178;2022-09-09T13:32:27;93917.25;;;24.62;56.43
42335;BME280;27986;42.700;24.178;2022-09-09T13:34:59;93925.63;;;24.58;56.33
42335;BME280;27986;42.700;24.178;2022-09-09T13:39:56;93915.16;;;24.41;58.02
42335;BME280;27986;42.700;24.178;2022-09-09T13:42:29;93904.38;;;24.42;58.04
42335;BME280;27986;42.700;24.178;2022-09-09T13:44:57;93906.44;;;24.51;59.37
42335;BME280;27986;42.700;24.178;2022-09-09T13:47:35;93918.09;;;24.53;59.03
42335;BME280;27986;42.700;24.178;2022-09-09T13:50:22;93942.09;;;24.67;58.97
42335;BME280;27986;42.700;24.178;2022-09-09T13:52:52;93905.66;;;24.29;58.61
42335;BME280;27986;42.700;24.178;2022-09-09T13:55:22;93910.50;;;24.36;58.33
42335;BME280;27986;42.700;24.178;2022-09-09T13:58:14;93935.69;;;24.69;58.58
42335;BME280;27986;42.700;24.178;2022-09-09T14:00:40;93901.72;;;24.34;58.50
42335;BME280;27986;42.700;24.178;2022-09-09T14:03:06;93928.06;;;24.40;57.56
42335;BME280;27986;42.700;24.178;2022-09-09T14:05:33;93907.88;;;24.19;58.12
42335;BME280;27986;42.700;24.178;2022-09-09T14:07:59;93894.78;;;24.06;58.79
42335;BME280;27986;42.700;24.178;2022-09-09T14:10:28;93898.06;;;24.12;57.85
42335;BME280;27986;42.700;24.178;2022-09-09T14:12:53;93918.31;;;24.24;57.93
42335;BME280;27986;42.700;24.178;2022-09-09T14:15:19;93922.94;;;24.29;56.98
42335;BME280;27986;42.700;24.178;2022-09-09T14:17:45;93903.91;;;24.24;56.51
42335;BME280;27986;42.700;24.178;2022-09-09T14:20:11;93917.06;;;24.27;56.31
42335;BME280;27986;42.700;24.178;2022-09-09T14:22:37;93884.16;;;24.09;56.02
42335;BME280;27986;42.700;24.178;2022-09-09T14:25:04;93926.81;;;24.43;55.88
42335;BME280;27986;42.700;24.178;2022-09-09T14:27:31;93928.88;;;24.53;56.23
42335;BME280;27986;42.700;24.178;2022-09-09T14:29:58;93908.28;;;24.47;56.00
42335;BME280;27986;42.700;24.178;2022-09-09T14:32:23;93929.38;;;24.49;56.21
42335;BME280;27986;42.700;24.178;2022-09-09T14:34:49;93897.97;;;24.32;55.66
42335;BME280;27986;42.700;24.178;2022-09-09T14:37:15;93927.66;;;24.34;56.52
42335;BME280;27986;42.700;24.178;2022-09-09T14:39:41;93929.84;;;24.46;56.58
42335;BME280;27986;42.700;24.178;2022-09-09T14:42:09;93913.69;;;24.52;57.07
42335;BME280;27986;42.700;24.178;2022-09-09T14:44:39;93900.44;;;24.59;55.29
42335;BME280;27986;42.700;24.178;2022-09-09T14:47:06;93894.06;;;24.60;55.63
42335;BME280;27986;42.700;24.178;2022-09-09T14:49:33;93876.72;;;24.49;56.04
42335;BME280;27986;42.700;24.178;2022-09-09T14:51:59;93905.78;;;24.74;55.60
42335;BME280;27986;42.700;24.178;2022-09-09T14:54:24;93890.44;;;24.71;54.59
42335;BME280;27986;42.700;24.178;2022-09-09T14:56:50;93890.06;;;24.65;54.11
42335;BME280;27986;42.700;24.178;2022-09-09T14:59:15;93903.19;;;24.90;53.78
42335;BME280;27986;42.700;24.178;2022-09-09T15:01:41;93905.75;;;25.07;53.58
42335;BME280;27986;42.700;24.178;2022-09-09T15:04:06;93866.97;;;24.98;53.14
42335;BME280;27986;42.700;24.178;2022-09-09T15:06:34;93889.97;;;25.20;53.81
42335;BME280;27986;42.700;24.178;2022-09-09T15:09:01;93889.84;;;25.18;53.35
42335;BME280;27986;42.700;24.178;2022-09-09T15:11:29;93885.81;;;25.11;54.27
42335;BME280;27986;42.700;24.178;2022-09-09T15:13:56;93881.19;;;25.06;54.85